ilmateenistus.ee keskkonnaagentuur.ee
EETN Tallinna lennuväli
FTEO31 EETN 251100 AAA
TAF AMD EETN 251409Z 2514/2612 17012KT 9999 BKN008 OVC020 TEMPO
    2514/2522 3000 SHSNRA BKN005 SCT015CB BECMG 2522/2524 VRB02KT 3000 BR
    BKN004 OVC010 TEMPO 2600/2604 1500 BR OVC003 TEMPO 2604/2609 0500
    FZFG VV001 BECMG 2610/2612 03010KT 4000 SN BKN006 OVC012=

METAR EETN 251550Z 16010KT 6000 SHSN BKN011 SCT015CB 01/M01 Q0997 R08/290195 TEMPO 3000=
Tallinna lennuväli
EEKA Kärdla lennuväli
FCEO32 EETN 251300
TAF EEKA 251300Z 2514/2520 17012KT 9999 BKN008 OVC012 TEMPO 2514/2518
    3000 SHRA BKN005 SCT013CB=

METAR EEKA 251550Z 15007KT 9999 OVC013 02/00 Q0995=
Kärdla lennuväli
EEKE Kuressaare lennuväli
FCEO32 EETN 251500
TAF EEKE 251500Z 2516/2522 21014KT 9999 SCT015 BKN025 TEMPO 2516/2522
    3000 SHRASN BKN006 SCT015CB=

METAR EEKE 251550Z 19011KT 9999 FEW012 BKN014 01/01 Q0996 R17/290095=
Kuressaare lennuväli
EEPU Pärnu lennuväli
METAR EEPU 251520Z NIL=
Pärnu lennuväli
EETU Tartu lennuväli
METAR EETU 251550Z AUTO 19007KT 9999 OVC020/// 01/M02 Q1000=
Tartu lennuväli
EEEI Ämari lennuväli
METAR EEEI 251550Z 14011KT 9999 -SNRA OVC007 01/M00 Q0997 R24/190095 NOSIG=
Ämari lennuväli